N1157K KSYR-KPTD
Flight info
| Callsign | N1157K |
|---|---|
| Flight time | N/A |
| Altitude | VFR/035 |
| Route | |
| Aircraft | M20P/L-VGD/C |
Departure
| Time | 2026-04-29 19:00 |
|---|---|
| Airport | Syracuse Hancock International Airport (KSYR) |
Arrival
| Time | N/A |
|---|---|
| Airport | Potsdam Municipal Airport Damon Field (KPTD) |
| Time | Latitude | Longitude | Altitude | Speed | Heading |
|---|---|---|---|---|---|
| 2026-04-29 18:56 | 43.11154 | -76.13065 | 418 ft | 0 kts | 207° |
| 2026-04-29 18:57 | 43.11111 | -76.13090 | 419 ft | 14 kts | 202° |
| 2026-04-29 18:58 | 43.11014 | -76.13021 | 419 ft | 20 kts | 134° |
| 2026-04-29 18:58 | 43.10935 | -76.12869 | 419 ft | 21 kts | 88° |
| 2026-04-29 18:58 | 43.10941 | -76.12709 | 419 ft | 3 kts | 88° |
| 2026-04-29 18:58 | 43.10942 | -76.12675 | 419 ft | 10 kts | 92° |
| 2026-04-29 18:59 | 43.10918 | -76.12635 | 415 ft | 0 kts | 169° |
| 2026-04-29 18:59 | 43.10889 | -76.12625 | 420 ft | 18 kts | 159° |
| 2026-04-29 19:00 | 43.10827 | -76.12388 | 420 ft | 51 kts | 85° |
| 2026-04-29 19:00 | 43.10849 | -76.11660 | 480 ft | 94 kts | 89° |
| 2026-04-29 19:00 | 43.10879 | -76.10690 | 757 ft | 111 kts | 90° |
| 2026-04-29 19:00 | 43.10905 | -76.09554 | 1050 ft | 128 kts | 91° |
| 2026-04-29 19:01 | 43.10936 | -76.08298 | 1477 ft | 136 kts | 91° |
| 2026-04-29 19:01 | 43.10975 | -76.06860 | 1608 ft | 157 kts | 92° |
| 2026-04-29 19:01 | 43.11066 | -76.05321 | 1746 ft | 169 kts | 89° |
| 2026-04-29 19:01 | 43.11265 | -76.03727 | 1955 ft | 178 kts | 69° |
| 2026-04-29 19:02 | 43.12020 | -76.02299 | 2029 ft | 191 kts | 50° |
| 2026-04-29 19:02 | 43.12673 | -76.01436 | 2112 ft | 195 kts | 44° |
| 2026-04-29 19:02 | 43.14107 | -75.99878 | 2128 ft | 204 kts | 39° |
| 2026-04-29 19:02 | 43.15278 | -75.98765 | 2113 ft | 207 kts | 27° |
| 2026-04-29 19:03 | 43.16626 | -75.98222 | 2366 ft | 196 kts | 18° |
| 2026-04-29 19:03 | 43.17867 | -75.97545 | 2694 ft | 189 kts | 27° |
| 2026-04-29 19:03 | 43.19032 | -75.96740 | 3015 ft | 187 kts | 29° |
| 2026-04-29 19:03 | 43.20188 | -75.95947 | 3337 ft | 186 kts | 27° |
| 2026-04-29 19:04 | 43.21374 | -75.95159 | 3466 ft | 196 kts | 27° |
| 2026-04-29 19:04 | 43.22641 | -75.94334 | 3467 ft | 206 kts | 26° |
| 2026-04-29 19:04 | 43.23948 | -75.93460 | 3461 ft | 211 kts | 28° |
| 2026-04-29 19:04 | 43.25277 | -75.92560 | 3471 ft | 215 kts | 27° |
| 2026-04-29 19:05 | 43.26624 | -75.91659 | 3467 ft | 216 kts | 27° |
| 2026-04-29 19:05 | 43.27974 | -75.90756 | 3470 ft | 216 kts | 27° |
| 2026-04-29 19:05 | 43.29328 | -75.89850 | 3472 ft | 217 kts | 27° |
| 2026-04-29 19:05 | 43.30686 | -75.88943 | 3471 ft | 217 kts | 27° |
| 2026-04-29 19:06 | 43.32045 | -75.88032 | 3473 ft | 217 kts | 27° |
| 2026-04-29 19:06 | 43.33400 | -75.87123 | 3469 ft | 216 kts | 28° |
| 2026-04-29 19:06 | 43.36105 | -75.85310 | 3469 ft | 217 kts | 28° |
| 2026-04-29 19:07 | 43.37461 | -75.84401 | 3465 ft | 217 kts | 27° |
| 2026-04-29 19:07 | 43.37900 | -75.84106 | 3468 ft | 217 kts | 28° |
| 2026-04-29 19:07 | 43.40164 | -75.82584 | 3470 ft | 218 kts | 27° |
| 2026-04-29 19:07 | 43.41548 | -75.81656 | 3470 ft | 219 kts | 27° |
| 2026-04-29 19:08 | 43.42898 | -75.80748 | 3472 ft | 219 kts | 28° |
| 2026-04-29 19:08 | 43.44284 | -75.79813 | 3468 ft | 219 kts | 28° |
| 2026-04-29 19:08 | 43.45637 | -75.78905 | 3470 ft | 219 kts | 27° |
| 2026-04-29 19:08 | 43.47019 | -75.77976 | 3473 ft | 219 kts | 27° |
| 2026-04-29 19:09 | 43.48367 | -75.77067 | 3459 ft | 218 kts | 27° |
| 2026-04-29 19:09 | 43.49744 | -75.76140 | 3463 ft | 217 kts | 27° |
| 2026-04-29 19:09 | 43.51081 | -75.75236 | 3462 ft | 217 kts | 28° |
| 2026-04-29 19:09 | 43.52436 | -75.74321 | 3467 ft | 217 kts | 28° |
| 2026-04-29 19:10 | 43.53796 | -75.73407 | 3474 ft | 217 kts | 28° |
| 2026-04-29 19:10 | 43.55154 | -75.72487 | 3468 ft | 217 kts | 27° |
| 2026-04-29 19:10 | 43.56514 | -75.71567 | 3467 ft | 218 kts | 28° |
| 2026-04-29 19:10 | 43.57861 | -75.70657 | 3471 ft | 218 kts | 28° |
| 2026-04-29 19:11 | 43.59236 | -75.69727 | 3468 ft | 218 kts | 27° |
| 2026-04-29 19:11 | 43.60598 | -75.68807 | 3465 ft | 218 kts | 28° |
| 2026-04-29 19:11 | 43.61953 | -75.67890 | 3466 ft | 217 kts | 27° |
| 2026-04-29 19:11 | 43.63314 | -75.66967 | 3461 ft | 218 kts | 28° |
| 2026-04-29 19:12 | 43.64683 | -75.66038 | 3462 ft | 219 kts | 28° |
| 2026-04-29 19:12 | 43.66053 | -75.65109 | 3465 ft | 220 kts | 28° |
| 2026-04-29 19:12 | 43.67432 | -75.64174 | 3464 ft | 222 kts | 28° |
| 2026-04-29 19:12 | 43.67901 | -75.63856 | 3466 ft | 222 kts | 28° |
| 2026-04-29 19:13 | 43.70196 | -75.62299 | 3465 ft | 221 kts | 28° |
| 2026-04-29 19:13 | 43.71107 | -75.61679 | 3466 ft | 220 kts | 29° |
| 2026-04-29 19:13 | 43.72504 | -75.60729 | 3467 ft | 220 kts | 28° |
| 2026-04-29 19:13 | 43.73858 | -75.59807 | 3461 ft | 219 kts | 28° |
| 2026-04-29 19:14 | 43.75273 | -75.59086 | 3450 ft | 218 kts | 7° |
| 2026-04-29 19:14 | 43.76738 | -75.59488 | 3446 ft | 216 kts | 329° |
| 2026-04-29 19:14 | 43.77881 | -75.60780 | 3445 ft | 211 kts | 303° |
| 2026-04-29 19:14 | 43.78567 | -75.62543 | 3450 ft | 207 kts | 290° |
| 2026-04-29 19:15 | 43.79152 | -75.64368 | 3450 ft | 208 kts | 291° |
| 2026-04-29 19:15 | 43.79803 | -75.66158 | 3452 ft | 209 kts | 294° |
| 2026-04-29 19:15 | 43.80493 | -75.67921 | 3454 ft | 209 kts | 295° |
| 2026-04-29 19:15 | 43.81181 | -75.69694 | 3456 ft | 209 kts | 295° |
| 2026-04-29 19:16 | 43.81862 | -75.71467 | 3454 ft | 208 kts | 294° |
| 2026-04-29 19:16 | 43.82539 | -75.73235 | 3455 ft | 209 kts | 295° |
| 2026-04-29 19:16 | 43.83220 | -75.75010 | 3455 ft | 208 kts | 295° |
| 2026-04-29 19:16 | 43.83899 | -75.76782 | 3457 ft | 208 kts | 295° |
| 2026-04-29 19:17 | 43.84578 | -75.78554 | 3459 ft | 209 kts | 295° |
| 2026-04-29 19:17 | 43.85259 | -75.80332 | 3477 ft | 208 kts | 295° |
| 2026-04-29 19:17 | 43.85937 | -75.82105 | 3481 ft | 208 kts | 295° |
| 2026-04-29 19:17 | 43.86613 | -75.83871 | 3480 ft | 207 kts | 295° |
| 2026-04-29 19:18 | 43.87284 | -75.85629 | 3484 ft | 207 kts | 295° |
| 2026-04-29 19:18 | 43.87727 | -75.86785 | 3481 ft | 198 kts | 295° |
| 2026-04-29 19:18 | 43.88606 | -75.89093 | 3484 ft | 205 kts | 295° |
| 2026-04-29 19:18 | 43.89274 | -75.90844 | 3482 ft | 206 kts | 295° |
| 2026-04-29 19:19 | 43.89940 | -75.92590 | 3482 ft | 200 kts | 295° |
| 2026-04-29 19:19 | 43.90570 | -75.94238 | 3479 ft | 192 kts | 295° |
| 2026-04-29 19:19 | 43.91186 | -75.95857 | 3481 ft | 190 kts | 295° |
| 2026-04-29 19:19 | 43.91801 | -75.97477 | 3476 ft | 188 kts | 294° |
| 2026-04-29 19:20 | 43.92408 | -75.99074 | 3475 ft | 186 kts | 295° |
| 2026-04-29 19:20 | 43.93011 | -76.00656 | 3475 ft | 185 kts | 294° |
| 2026-04-29 19:20 | 43.93607 | -76.02227 | 3473 ft | 184 kts | 295° |
| 2026-04-29 19:20 | 43.94204 | -76.03801 | 3475 ft | 184 kts | 294° |
| 2026-04-29 19:21 | 43.94684 | -76.05421 | 3476 ft | 177 kts | 277° |
| 2026-04-29 19:21 | 43.94678 | -76.07057 | 3474 ft | 164 kts | 255° |
| 2026-04-29 19:21 | 43.94279 | -76.08474 | 3473 ft | 154 kts | 235° |
| 2026-04-29 19:21 | 43.93705 | -76.09688 | 3474 ft | 148 kts | 234° |
| 2026-04-29 19:22 | 43.93135 | -76.10915 | 3475 ft | 155 kts | 234° |
| 2026-04-29 19:22 | 43.92538 | -76.12205 | 3487 ft | 162 kts | 233° |
| 2026-04-29 19:22 | 43.91919 | -76.13536 | 3491 ft | 166 kts | 234° |
| 2026-04-29 19:22 | 43.91293 | -76.14882 | 3491 ft | 166 kts | 234° |
| 2026-04-29 19:23 | 43.90666 | -76.16225 | 3489 ft | 166 kts | 234° |
| 2026-04-29 19:23 | 43.90035 | -76.17577 | 3419 ft | 170 kts | 233° |
| 2026-04-29 19:23 | 43.89385 | -76.18968 | 3296 ft | 174 kts | 234° |
| 2026-04-29 19:23 | 43.88726 | -76.20384 | 3188 ft | 175 kts | 233° |
| 2026-04-29 19:24 | 43.88082 | -76.21764 | 3311 ft | 162 kts | 233° |
| 2026-04-29 19:24 | 43.87489 | -76.23035 | 3478 ft | 157 kts | 233° |
| 2026-04-29 19:24 | 43.86880 | -76.24330 | 3478 ft | 167 kts | 233° |
| 2026-04-29 19:24 | 43.86219 | -76.25737 | 3488 ft | 180 kts | 234° |
| 2026-04-29 19:25 | 43.85528 | -76.27221 | 3497 ft | 186 kts | 234° |
| 2026-04-29 19:25 | 43.84817 | -76.28741 | 3493 ft | 190 kts | 234° |
| 2026-04-29 19:25 | 43.84093 | -76.30283 | 3495 ft | 191 kts | 233° |
| 2026-04-29 19:25 | 43.83292 | -76.31748 | 3501 ft | 191 kts | 231° |
| 2026-04-29 19:26 | 43.82517 | -76.33245 | 3508 ft | 193 kts | 231° |
| 2026-04-29 19:26 | 43.81719 | -76.34764 | 3511 ft | 197 kts | 231° |
| 2026-04-29 19:26 | 43.80904 | -76.36288 | 3507 ft | 197 kts | 230° |
| 2026-04-29 19:26 | 43.79878 | -76.37468 | 3494 ft | 192 kts | 200° |
| 2026-04-29 19:27 | 43.78577 | -76.37497 | 3494 ft | 192 kts | 162° |
| 2026-04-29 19:27 | 43.77536 | -76.36345 | 3492 ft | 199 kts | 125° |
| 2026-04-29 19:27 | 43.77218 | -76.34477 | 3492 ft | 207 kts | 88° |
| 2026-04-29 19:27 | 43.77794 | -76.32650 | 3492 ft | 214 kts | 51° |
| 2026-04-29 19:28 | 43.79043 | -76.31600 | 3485 ft | 217 kts | 14° |
| 2026-04-29 19:28 | 43.80529 | -76.31590 | 3493 ft | 213 kts | 352° |
| 2026-04-29 19:28 | 43.82008 | -76.31695 | 3494 ft | 213 kts | 3° |
| 2026-04-29 19:28 | 43.83442 | -76.31286 | 3488 ft | 211 kts | 27° |
| 2026-04-29 19:29 | 43.84459 | -76.29999 | 3488 ft | 189 kts | 59° |
| 2026-04-29 19:29 | 43.85154 | -76.28537 | 3487 ft | 175 kts | 58° |
| 2026-04-29 19:29 | 43.85756 | -76.27393 | 3481 ft | 128 kts | 58° |
| 2026-04-29 19:29 | 43.86241 | -76.26470 | 3488 ft | 116 kts | 59° |
| 2026-04-29 19:30 | 43.86726 | -76.25568 | 3486 ft | 118 kts | 58° |
| 2026-04-29 19:30 | 43.87112 | -76.24849 | 3492 ft | 121 kts | 58° |
| 2026-04-29 19:30 | 43.87341 | -76.24416 | 3493 ft | 122 kts | 58° |
| 2026-04-29 19:30 | 43.87836 | -76.23500 | 3489 ft | 115 kts | 58° |
| 2026-04-29 19:31 | 43.88304 | -76.22616 | 3486 ft | 113 kts | 58° |
| 2026-04-29 19:31 | 43.88769 | -76.21752 | 3487 ft | 112 kts | 59° |
| 2026-04-29 19:31 | 43.89230 | -76.20884 | 3486 ft | 112 kts | 58° |
| 2026-04-29 19:31 | 43.89709 | -76.19989 | 3370 ft | 118 kts | 58° |
| 2026-04-29 19:32 | 43.90207 | -76.19061 | 3215 ft | 121 kts | 58° |
| 2026-04-29 19:32 | 43.90711 | -76.18121 | 3046 ft | 122 kts | 58° |
| 2026-04-29 19:32 | 43.91211 | -76.17185 | 2881 ft | 120 kts | 58° |
| 2026-04-29 19:32 | 43.91707 | -76.16256 | 2720 ft | 120 kts | 57° |
| 2026-04-29 19:33 | 43.92205 | -76.15330 | 2558 ft | 120 kts | 57° |
| 2026-04-29 19:33 | 43.92692 | -76.14411 | 2397 ft | 113 kts | 56° |
| 2026-04-29 19:33 | 43.93134 | -76.13595 | 2247 ft | 101 kts | 57° |
| 2026-04-29 19:33 | 43.93544 | -76.12814 | 2113 ft | 100 kts | 57° |
| 2026-04-29 19:34 | 43.93960 | -76.12044 | 1990 ft | 99 kts | 56° |
| 2026-04-29 19:34 | 43.94368 | -76.11278 | 1846 ft | 98 kts | 57° |
| 2026-04-29 19:34 | 43.94767 | -76.10537 | 1717 ft | 94 kts | 54° |
| 2026-04-29 19:34 | 43.95145 | -76.09821 | 1589 ft | 90 kts | 54° |
| 2026-04-29 19:35 | 43.95517 | -76.09131 | 1468 ft | 89 kts | 53° |
| 2026-04-29 19:35 | 43.95880 | -76.08442 | 1334 ft | 87 kts | 52° |
| 2026-04-29 19:35 | 43.96231 | -76.07786 | 1205 ft | 83 kts | 50° |
| 2026-04-29 19:35 | 43.96574 | -76.07154 | 1087 ft | 81 kts | 49° |
| 2026-04-29 19:36 | 43.96912 | -76.06514 | 976 ft | 85 kts | 49° |
| 2026-04-29 19:36 | 43.97275 | -76.05836 | 852 ft | 89 kts | 50° |
| 2026-04-29 19:36 | 43.97646 | -76.05138 | 732 ft | 90 kts | 49° |
| 2026-04-29 19:36 | 43.98022 | -76.04434 | 659 ft | 87 kts | 50° |
| 2026-04-29 19:37 | 43.98369 | -76.03765 | 566 ft | 85 kts | 47° |
| 2026-04-29 19:37 | 43.98605 | -76.03334 | 463 ft | 85 kts | 46° |
| 2026-04-29 19:37 | 43.99026 | -76.02543 | 317 ft | 61 kts | 49° |
| 2026-04-29 19:37 | 43.99172 | -76.02280 | 319 ft | 20 kts | 53° |
| 2026-04-29 19:38 | 43.99292 | -76.02089 | 319 ft | 16 kts | 303° |
| 2026-04-29 19:38 | 43.99341 | -76.02206 | 320 ft | 20 kts | 27° |
| 2026-04-29 19:38 | 43.99421 | -76.02072 | 322 ft | 20 kts | 27° |
| 2026-04-29 19:38 | 43.99461 | -76.02128 | 322 ft | 11 kts | 261° |
| 2026-04-29 19:39 | 43.99471 | -76.02138 | 322 ft | 0 kts | 358° |